createdAt,value
2019-03-22T00:01:43.497Z,11.40
2019-03-22T00:06:48.367Z,11.30
2019-03-22T00:11:53.416Z,11.30
2019-03-22T00:16:58.161Z,11.30
2019-03-22T00:22:02.674Z,11.30
2019-03-22T00:27:15.888Z,11.20
2019-03-22T00:32:13.612Z,11.30
2019-03-22T00:37:19.276Z,11.30
2019-03-22T00:42:24.018Z,11.30
2019-03-22T00:47:28.454Z,11.30
2019-03-22T00:52:33.194Z,11.30
2019-03-22T00:57:37.629Z,11.30
2019-03-22T01:02:42.370Z,11.20
2019-03-22T01:07:48.036Z,11.20
2019-03-22T01:12:54.004Z,11.30
2019-03-22T01:17:58.445Z,11.30
2019-03-22T01:23:03.180Z,11.30
2019-03-22T01:28:08.517Z,11.30
2019-03-22T01:33:14.507Z,11.30
2019-03-22T01:38:19.249Z,11.40
2019-03-22T01:43:23.992Z,11.30
2019-03-22T01:48:28.733Z,11.30
2019-03-22T01:53:34.397Z,11.30
2019-03-22T01:58:38.829Z,11.30
2019-03-22T02:03:43.573Z,11.30
2019-03-22T02:08:47.982Z,11.30
2019-03-22T02:13:53.057Z,11.30
2019-03-22T02:18:57.799Z,11.20
2019-03-22T02:24:02.541Z,11.20
2019-03-22T02:29:07.897Z,11.20
2019-03-22T02:34:12.946Z,11.20
2019-03-22T02:39:18.314Z,11.10
2019-03-22T02:44:23.044Z,11.10
2019-03-22T02:49:28.101Z,11.10
2019-03-22T02:54:33.126Z,11.10
2019-03-22T02:59:37.864Z,11.00
2019-03-22T03:04:42.603Z,11.00
2019-03-22T03:09:47.677Z,11.00
2019-03-22T03:14:52.803Z,11.00
2019-03-22T03:19:57.778Z,10.90
2019-03-22T03:25:02.519Z,10.80
2019-03-22T03:30:15.841Z,10.70
2019-03-22T03:35:20.600Z,10.70
2019-03-22T03:40:25.341Z,10.60
2019-03-22T03:45:34.740Z,10.50
2019-03-22T03:50:39.742Z,10.50
2019-03-22T03:55:44.491Z,10.50
2019-03-22T04:00:49.233Z,10.50
2019-03-22T04:05:53.972Z,10.50
2019-03-22T04:10:58.710Z,10.50
2019-03-22T04:16:03.852Z,10.50
2019-03-22T04:21:08.812Z,10.50
2019-03-22T04:26:13.556Z,10.50
2019-03-22T04:31:18.292Z,10.40
2019-03-22T04:36:23.034Z,10.40
2019-03-22T04:41:27.773Z,10.30
2019-03-22T04:46:32.797Z,10.40
2019-03-22T04:51:38.178Z,10.30
2019-03-22T04:56:43.164Z,10.30
2019-03-22T05:01:49.816Z,10.30
2019-03-22T05:06:54.882Z,10.30
2019-03-22T05:12:02.304Z,10.30
2019-03-22T05:17:08.313Z,10.30
2019-03-22T05:22:15.847Z,10.20
2019-03-22T05:27:21.321Z,10.30
2019-03-22T05:32:26.233Z,10.30
2019-03-22T05:37:31.280Z,10.30
2019-03-22T05:42:36.274Z,10.40
2019-03-22T05:47:41.092Z,10.50
2019-03-22T05:52:45.832Z,10.50
2019-03-22T05:57:50.675Z,10.60
2019-03-22T06:02:55.624Z,10.70
2019-03-22T06:08:00.365Z,10.80
2019-03-22T06:13:06.646Z,10.70
2019-03-22T06:18:11.692Z,10.80
2019-03-22T06:23:16.372Z,10.90
2019-03-22T06:28:21.482Z,11.00
2019-03-22T06:33:26.228Z,11.20
2019-03-22T06:38:30.973Z,11.30
2019-03-22T06:43:35.559Z,11.30
2019-03-22T06:48:40.449Z,11.40
2019-03-22T06:53:45.193Z,11.40
2019-03-22T06:58:50.009Z,11.30
2019-03-22T07:03:55.166Z,11.20
2019-03-22T07:08:59.913Z,11.20
2019-03-22T07:14:04.939Z,11.30
2019-03-22T07:19:10.131Z,11.30
2019-03-22T07:24:14.873Z,11.30
2019-03-22T07:29:19.557Z,11.50
2019-03-22T07:34:24.666Z,11.60
2019-03-22T07:39:29.404Z,11.60
2019-03-22T07:44:34.145Z,11.70
2019-03-22T07:49:38.922Z,11.80
2019-03-22T07:54:43.941Z,12.10
2019-03-22T07:59:48.625Z,12.20
2019-03-22T08:04:54.648Z,12.40
2019-03-22T08:09:59.464Z,12.40
2019-03-22T08:15:08.238Z,12.70
2019-03-22T08:20:12.569Z,12.90
2019-03-22T08:25:17.337Z,13.20
2019-03-22T08:30:22.165Z,13.40
2019-03-22T08:35:27.100Z,13.50
2019-03-22T08:40:32.155Z,14.10
2019-03-22T08:45:37.490Z,14.30
2019-03-22T08:50:42.545Z,14.40
2019-03-22T08:55:47.609Z,14.30
2019-03-22T09:00:57.638Z,14.30
2019-03-22T09:05:59.736Z,14.30
2019-03-22T09:11:04.937Z,14.50
2019-03-22T09:16:09.954Z,14.20
2019-03-22T09:21:15.379Z,14.00
2019-03-22T09:26:20.229Z,14.10
2019-03-22T09:31:25.127Z,14.60
2019-03-22T09:36:30.142Z,14.90
2019-03-22T09:41:35.188Z,14.30
2019-03-22T09:46:40.220Z,14.50
2019-03-22T09:51:44.855Z,14.90
2019-03-22T09:56:49.738Z,15.00
2019-03-22T10:01:54.461Z,15.10
2019-03-22T10:06:59.511Z,15.00
2019-03-22T10:12:04.594Z,14.70
2019-03-22T10:17:09.621Z,14.50
2019-03-22T10:22:14.639Z,14.80
2019-03-22T10:27:19.706Z,14.90
2019-03-22T10:32:24.427Z,14.70
2019-03-22T10:37:29.526Z,14.20
2019-03-22T10:42:34.266Z,14.20
2019-03-22T10:47:39.355Z,14.20
2019-03-22T10:52:44.337Z,14.50
2019-03-22T10:57:49.678Z,14.60
2019-03-22T11:02:54.743Z,15.10
2019-03-22T11:07:59.482Z,15.40
2019-03-22T11:13:04.303Z,15.30
2019-03-22T11:18:09.278Z,15.20
2019-03-22T11:23:14.093Z,15.20
2019-03-22T11:28:19.070Z,15.10
2019-03-22T11:33:23.806Z,14.80
2019-03-22T11:38:28.531Z,14.50
2019-03-22T11:43:33.374Z,14.50
2019-03-22T11:48:38.348Z,14.40
2019-03-22T11:53:43.389Z,14.30
2019-03-22T11:58:48.133Z,14.30
2019-03-22T12:03:54.493Z,14.40
2019-03-22T12:08:59.364Z,14.40
2019-03-22T12:14:05.427Z,14.70
2019-03-22T12:19:10.094Z,14.50
2019-03-22T12:24:15.218Z,14.70
2019-03-22T12:29:19.961Z,14.80
2019-03-22T12:34:24.996Z,15.30
2019-03-22T12:39:29.931Z,15.50
2019-03-22T12:44:34.801Z,14.70
2019-03-22T12:49:40.463Z,14.40
2019-03-22T12:54:45.204Z,14.60
2019-03-22T12:59:49.953Z,14.50
2019-03-22T13:04:54.662Z,14.10
2019-03-22T13:09:59.430Z,14.50
2019-03-22T13:15:04.996Z,15.00
2019-03-22T13:20:11.897Z,14.70
2019-03-22T13:25:18.189Z,14.10
2019-03-22T13:30:38.967Z,14.30
2019-03-22T13:35:44.021Z,14.80
2019-03-22T13:40:48.769Z,14.70
2019-03-22T13:45:53.599Z,14.90
2019-03-22T13:50:58.561Z,14.90
2019-03-22T13:56:03.314Z,14.60
2019-03-22T14:01:08.045Z,14.60
2019-03-22T14:06:13.098Z,14.70
2019-03-22T14:11:17.835Z,14.50
2019-03-22T14:16:22.578Z,14.50
2019-03-22T14:21:27.607Z,14.70
2019-03-22T14:26:32.681Z,14.50
2019-03-22T14:31:37.332Z,14.50
2019-03-22T14:36:42.165Z,14.40
2019-03-22T14:41:47.209Z,14.40
2019-03-22T14:46:52.033Z,14.50
2019-03-22T14:51:56.983Z,14.50
2019-03-22T14:57:02.047Z,14.20
2019-03-22T15:02:07.403Z,14.10
2019-03-22T15:07:19.572Z,13.90
2019-03-22T15:12:18.606Z,13.80
2019-03-22T15:17:25.011Z,13.80
2019-03-22T15:22:40.501Z,13.70
2019-03-22T15:27:47.093Z,13.60
2019-03-22T15:33:02.584Z,13.60
2019-03-22T15:38:27.088Z,13.50
2019-03-22T15:43:32.013Z,13.50
2019-03-22T15:48:36.775Z,13.50
2019-03-22T15:53:41.599Z,13.40
2019-03-22T15:58:46.334Z,13.40
2019-03-22T16:03:51.093Z,13.30
2019-03-22T16:08:56.057Z,13.10
2019-03-22T16:14:00.728Z,13.10
2019-03-22T16:19:05.546Z,13.00
2019-03-22T16:24:10.273Z,12.90
2019-03-22T16:29:16.247Z,12.70
2019-03-22T16:34:21.296Z,12.50
2019-03-22T16:39:26.035Z,12.30
2019-03-22T16:44:30.777Z,12.00
2019-03-22T16:49:35.681Z,11.80
2019-03-22T16:54:40.567Z,11.60
2019-03-22T16:59:45.288Z,11.30
2019-03-22T17:04:50.052Z,11.10
2019-03-22T17:09:54.779Z,11.10
2019-03-22T17:15:00.766Z,11.10
2019-03-22T17:20:07.348Z,10.90
2019-03-22T17:25:12.093Z,10.70
2019-03-22T17:30:18.302Z,10.50
2019-03-22T17:35:23.419Z,10.20
2019-03-22T17:40:28.158Z,10.00
2019-03-22T17:45:33.208Z,9.80
2019-03-22T17:50:37.926Z,9.60
2019-03-22T17:55:43.084Z,9.50
2019-03-22T18:00:48.354Z,9.30
2019-03-22T18:05:53.075Z,9.10
2019-03-22T18:10:58.145Z,9.00
2019-03-22T18:16:03.194Z,8.90
2019-03-22T18:21:07.937Z,8.80
2019-03-22T18:26:12.709Z,8.60
2019-03-22T18:31:17.728Z,8.60
2019-03-22T18:36:23.774Z,8.40
2019-03-22T18:41:28.756Z,8.30
2019-03-22T18:46:34.084Z,8.30
2019-03-22T18:51:38.845Z,8.10
2019-03-22T18:56:43.561Z,8.00
2019-03-22T19:01:48.301Z,7.90
2019-03-22T19:06:53.153Z,7.80
2019-03-22T19:11:57.994Z,7.80
2019-03-22T19:17:02.875Z,7.70
2019-03-22T19:22:07.681Z,7.60
2019-03-22T19:27:12.666Z,7.30
2019-03-22T19:32:17.308Z,7.30
2019-03-22T19:37:22.134Z,7.30
2019-03-22T19:42:26.877Z,7.30
2019-03-22T19:47:31.926Z,7.30
2019-03-22T19:52:36.746Z,7.40
2019-03-22T19:57:41.732Z,7.30
2019-03-22T20:02:46.764Z,7.20
2019-03-22T20:07:51.481Z,7.10
2019-03-22T20:12:56.485Z,7.10
2019-03-22T20:18:01.990Z,7.00
2019-03-22T20:23:06.966Z,6.80
2019-03-22T20:28:12.015Z,6.70
2019-03-22T20:33:17.062Z,6.60
2019-03-22T20:38:21.787Z,6.40
2019-03-22T20:43:26.528Z,6.40
2019-03-22T20:48:31.591Z,6.40
2019-03-22T20:53:36.333Z,6.30
2019-03-22T20:58:41.381Z,6.30
2019-03-22T21:03:46.123Z,6.30
2019-03-22T21:08:50.850Z,6.30
2019-03-22T21:13:55.919Z,6.30
2019-03-22T21:19:00.963Z,6.30
2019-03-22T21:24:05.681Z,6.30
2019-03-22T21:29:10.431Z,6.30
2019-03-22T21:34:15.266Z,6.20
2019-03-22T21:39:20.237Z,6.20
2019-03-22T21:44:24.864Z,6.10
2019-03-22T21:49:30.222Z,6.10
2019-03-22T21:54:35.077Z,6.00
2019-03-22T21:59:40.126Z,5.90
2019-03-22T22:04:44.867Z,5.80
2019-03-22T22:09:49.587Z,5.80
2019-03-22T22:14:54.351Z,5.90
2019-03-22T22:19:59.400Z,5.90
2019-03-22T22:25:05.371Z,5.80
2019-03-22T22:30:11.610Z,5.70
2019-03-22T22:35:16.698Z,5.70
2019-03-22T22:40:21.438Z,5.80
2019-03-22T22:45:26.180Z,5.80
2019-03-22T22:50:30.922Z,5.90
2019-03-22T22:55:35.971Z,6.00
2019-03-22T23:00:42.235Z,6.00
2019-03-22T23:05:47.581Z,6.10
2019-03-22T23:10:52.654Z,6.10
2019-03-22T23:15:57.474Z,6.10
2019-03-22T23:21:02.554Z,6.00
2019-03-22T23:26:07.494Z,5.80
2019-03-22T23:31:12.543Z,5.70
2019-03-22T23:36:20.472Z,5.80
2019-03-22T23:41:24.156Z,5.90
2019-03-22T23:46:28.998Z,5.90
2019-03-22T23:51:33.967Z,5.90
2019-03-22T23:56:38.802Z,5.90
